sensor_id;sensor_type;location;lat;lon;timestamp;P1;durP1;ratioP1;P2;durP2;ratioP2
1300;SDS011;67431;48.806;9.160;2023-02-10T00:01:29;31.53;;;20.47;;
1300;SDS011;67431;48.806;9.160;2023-02-10T00:03:55;42.03;;;22.13;;
1300;SDS011;67431;48.806;9.160;2023-02-10T00:06:24;39.27;;;22.13;;
1300;SDS011;67431;48.806;9.160;2023-02-10T00:08:59;30.90;;;21.00;;
1300;SDS011;67431;48.806;9.160;2023-02-10T00:11:37;35.93;;;20.13;;
1300;SDS011;67431;48.806;9.160;2023-02-10T00:14:23;35.13;;;22.07;;
1300;SDS011;67431;48.806;9.160;2023-02-10T00:17:15;35.87;;;21.40;;
1300;SDS011;67431;48.806;9.160;2023-02-10T00:19:43;35.73;;;21.67;;
1300;SDS011;67431;48.806;9.160;2023-02-10T00:22:11;36.93;;;21.37;;
1300;SDS011;67431;48.806;9.160;2023-02-10T00:24:40;34.00;;;19.73;;
1300;SDS011;67431;48.806;9.160;2023-02-10T00:27:06;36.23;;;22.17;;
1300;SDS011;67431;48.806;9.160;2023-02-10T00:29:34;32.00;;;20.30;;
1300;SDS011;67431;48.806;9.160;2023-02-10T00:32:02;34.83;;;21.70;;
1300;SDS011;67431;48.806;9.160;2023-02-10T00:34:28;37.17;;;20.67;;
1300;SDS011;67431;48.806;9.160;2023-02-10T00:36:55;34.13;;;20.33;;
1300;SDS011;67431;48.806;9.160;2023-02-10T00:39:22;38.30;;;22.17;;
1300;SDS011;67431;48.806;9.160;2023-02-10T00:41:48;35.63;;;20.50;;
1300;SDS011;67431;48.806;9.160;2023-02-10T00:44:14;38.60;;;22.23;;
1300;SDS011;67431;48.806;9.160;2023-02-10T00:46:40;37.07;;;21.57;;
1300;SDS011;67431;48.806;9.160;2023-02-10T00:49:08;33.63;;;20.20;;
1300;SDS011;67431;48.806;9.160;2023-02-10T00:51:39;32.17;;;18.50;;
1300;SDS011;67431;48.806;9.160;2023-02-10T00:54:07;38.17;;;20.77;;
1300;SDS011;67431;48.806;9.160;2023-02-10T00:56:36;31.87;;;20.50;;
1300;SDS011;67431;48.806;9.160;2023-02-10T00:59:02;35.63;;;20.30;;
1300;SDS011;67431;48.806;9.160;2023-02-10T01:01:30;38.40;;;20.20;;
1300;SDS011;67431;48.806;9.160;2023-02-10T01:03:56;33.90;;;21.17;;
1300;SDS011;67431;48.806;9.160;2023-02-10T01:06:26;31.70;;;19.27;;
1300;SDS011;67431;48.806;9.160;2023-02-10T01:08:53;35.20;;;20.90;;
1300;SDS011;67431;48.806;9.160;2023-02-10T01:11:21;36.70;;;22.30;;
1300;SDS011;67431;48.806;9.160;2023-02-10T01:13:49;33.00;;;21.97;;
1300;SDS011;67431;48.806;9.160;2023-02-10T01:16:21;38.73;;;21.30;;
1300;SDS011;67431;48.806;9.160;2023-02-10T01:19:44;34.53;;;20.83;;
1300;SDS011;67431;48.806;9.160;2023-02-10T01:22:13;36.23;;;21.47;;
1300;SDS011;67431;48.806;9.160;2023-02-10T01:25:13;36.00;;;20.80;;
1300;SDS011;67431;48.806;9.160;2023-02-10T01:27:48;36.53;;;22.30;;
1300;SDS011;67431;48.806;9.160;2023-02-10T01:30:34;36.77;;;22.07;;
1300;SDS011;67431;48.806;9.160;2023-02-10T01:33:01;35.77;;;21.13;;
1300;SDS011;67431;48.806;9.160;2023-02-10T01:35:28;31.77;;;19.70;;
1300;SDS011;67431;48.806;9.160;2023-02-10T01:37:55;32.10;;;20.90;;
1300;SDS011;67431;48.806;9.160;2023-02-10T01:46:31;35.27;;;20.33;;
1300;SDS011;67431;48.806;9.160;2023-02-10T01:52:31;28.60;;;18.80;;
1300;SDS011;67431;48.806;9.160;2023-02-10T01:55:04;35.67;;;22.20;;
1300;SDS011;67431;48.806;9.160;2023-02-10T01:57:33;33.90;;;20.10;;
1300;SDS011;67431;48.806;9.160;2023-02-10T02:00:04;40.70;;;22.90;;
1300;SDS011;67431;48.806;9.160;2023-02-10T02:02:36;39.43;;;22.00;;
1300;SDS011;67431;48.806;9.160;2023-02-10T02:05:05;35.70;;;21.23;;
1300;SDS011;67431;48.806;9.160;2023-02-10T02:07:42;36.57;;;21.03;;
1300;SDS011;67431;48.806;9.160;2023-02-10T02:10:10;35.90;;;20.80;;
1300;SDS011;67431;48.806;9.160;2023-02-10T02:18:09;37.37;;;22.13;;
1300;SDS011;67431;48.806;9.160;2023-02-10T02:36:00;37.83;;;20.30;;
1300;SDS011;67431;48.806;9.160;2023-02-10T02:38:36;39.57;;;21.37;;
1300;SDS011;67431;48.806;9.160;2023-02-10T02:41:04;33.83;;;20.80;;
1300;SDS011;67431;48.806;9.160;2023-02-10T02:43:31;44.30;;;23.83;;
1300;SDS011;67431;48.806;9.160;2023-02-10T02:48:52;45.20;;;25.50;;
1300;SDS011;67431;48.806;9.160;2023-02-10T02:51:41;36.70;;;20.30;;
1300;SDS011;67431;48.806;9.160;2023-02-10T02:54:34;45.40;;;22.13;;
1300;SDS011;67431;48.806;9.160;2023-02-10T03:00:18;34.90;;;20.33;;
1300;SDS011;67431;48.806;9.160;2023-02-10T03:02:48;34.43;;;21.10;;
1300;SDS011;67431;48.806;9.160;2023-02-10T03:05:18;41.23;;;21.43;;
1300;SDS011;67431;48.806;9.160;2023-02-10T03:07:49;36.37;;;21.70;;
1300;SDS011;67431;48.806;9.160;2023-02-10T03:10:15;35.97;;;21.37;;
1300;SDS011;67431;48.806;9.160;2023-02-10T03:12:41;34.30;;;20.00;;
1300;SDS011;67431;48.806;9.160;2023-02-10T03:15:07;39.00;;;21.30;;
1300;SDS011;67431;48.806;9.160;2023-02-10T03:17:34;38.50;;;22.13;;
1300;SDS011;67431;48.806;9.160;2023-02-10T03:20:02;37.53;;;21.77;;
1300;SDS011;67431;48.806;9.160;2023-02-10T03:22:28;38.10;;;22.47;;
1300;SDS011;67431;48.806;9.160;2023-02-10T03:24:54;38.73;;;23.00;;
1300;SDS011;67431;48.806;9.160;2023-02-10T03:27:20;42.13;;;24.37;;
1300;SDS011;67431;48.806;9.160;2023-02-10T03:29:47;42.97;;;23.23;;
1300;SDS011;67431;48.806;9.160;2023-02-10T03:32:15;40.97;;;22.93;;
1300;SDS011;67431;48.806;9.160;2023-02-10T03:34:42;41.53;;;21.83;;
1300;SDS011;67431;48.806;9.160;2023-02-10T03:37:08;34.40;;;21.57;;
1300;SDS011;67431;48.806;9.160;2023-02-10T03:39:33;43.80;;;23.47;;
1300;SDS011;67431;48.806;9.160;2023-02-10T03:41:59;35.33;;;20.77;;
1300;SDS011;67431;48.806;9.160;2023-02-10T03:44:26;47.57;;;22.77;;
1300;SDS011;67431;48.806;9.160;2023-02-10T03:46:52;41.77;;;22.40;;
1300;SDS011;67431;48.806;9.160;2023-02-10T03:49:18;38.17;;;22.23;;
1300;SDS011;67431;48.806;9.160;2023-02-10T03:51:44;34.57;;;21.10;;
1300;SDS011;67431;48.806;9.160;2023-02-10T03:54:10;35.20;;;19.87;;
1300;SDS011;67431;48.806;9.160;2023-02-10T03:56:36;41.90;;;21.30;;
1300;SDS011;67431;48.806;9.160;2023-02-10T03:59:03;39.50;;;22.23;;
1300;SDS011;67431;48.806;9.160;2023-02-10T04:01:30;35.40;;;21.00;;
1300;SDS011;67431;48.806;9.160;2023-02-10T04:03:56;38.47;;;23.50;;
1300;SDS011;67431;48.806;9.160;2023-02-10T04:06:22;41.40;;;22.67;;
1300;SDS011;67431;48.806;9.160;2023-02-10T04:08:50;40.60;;;22.40;;
1300;SDS011;67431;48.806;9.160;2023-02-10T04:11:38;41.53;;;20.73;;
1300;SDS011;67431;48.806;9.160;2023-02-10T04:14:16;38.90;;;20.80;;
1300;SDS011;67431;48.806;9.160;2023-02-10T04:16:42;39.20;;;22.07;;
1300;SDS011;67431;48.806;9.160;2023-02-10T04:19:07;32.77;;;21.80;;
1300;SDS011;67431;48.806;9.160;2023-02-10T04:21:33;37.20;;;20.73;;
1300;SDS011;67431;48.806;9.160;2023-02-10T04:24:00;43.60;;;24.00;;
1300;SDS011;67431;48.806;9.160;2023-02-10T04:26:29;36.97;;;21.70;;
1300;SDS011;67431;48.806;9.160;2023-02-10T04:28:55;38.70;;;22.60;;
1300;SDS011;67431;48.806;9.160;2023-02-10T04:31:21;37.73;;;22.33;;
1300;SDS011;67431;48.806;9.160;2023-02-10T04:33:48;42.70;;;24.37;;
1300;SDS011;67431;48.806;9.160;2023-02-10T04:36:13;40.50;;;24.80;;
1300;SDS011;67431;48.806;9.160;2023-02-10T04:38:39;39.27;;;22.73;;
1300;SDS011;67431;48.806;9.160;2023-02-10T04:41:06;37.97;;;21.67;;
1300;SDS011;67431;48.806;9.160;2023-02-10T04:43:32;39.37;;;22.63;;
1300;SDS011;67431;48.806;9.160;2023-02-10T04:45:59;38.50;;;20.80;;
1300;SDS011;67431;48.806;9.160;2023-02-10T04:48:29;39.30;;;22.20;;
1300;SDS011;67431;48.806;9.160;2023-02-10T04:50:55;42.20;;;23.27;;
1300;SDS011;67431;48.806;9.160;2023-02-10T04:53:21;35.73;;;21.80;;
1300;SDS011;67431;48.806;9.160;2023-02-10T04:55:48;40.27;;;21.73;;
1300;SDS011;67431;48.806;9.160;2023-02-10T04:58:15;36.00;;;20.93;;
1300;SDS011;67431;48.806;9.160;2023-02-10T05:00:41;36.93;;;21.23;;
1300;SDS011;67431;48.806;9.160;2023-02-10T05:03:07;40.17;;;22.83;;
1300;SDS011;67431;48.806;9.160;2023-02-10T05:05:32;42.50;;;23.00;;
1300;SDS011;67431;48.806;9.160;2023-02-10T05:07:58;37.47;;;21.00;;
1300;SDS011;67431;48.806;9.160;2023-02-10T05:10:24;35.03;;;20.90;;
1300;SDS011;67431;48.806;9.160;2023-02-10T05:12:50;39.73;;;22.40;;
1300;SDS011;67431;48.806;9.160;2023-02-10T05:15:16;36.30;;;20.10;;
1300;SDS011;67431;48.806;9.160;2023-02-10T05:17:42;43.07;;;24.07;;
1300;SDS011;67431;48.806;9.160;2023-02-10T05:20:08;38.23;;;23.80;;
1300;SDS011;67431;48.806;9.160;2023-02-10T05:22:35;36.10;;;22.90;;
1300;SDS011;67431;48.806;9.160;2023-02-10T05:25:01;41.67;;;23.60;;
1300;SDS011;67431;48.806;9.160;2023-02-10T05:27:28;42.30;;;25.27;;
1300;SDS011;67431;48.806;9.160;2023-02-10T05:29:54;41.90;;;24.57;;
1300;SDS011;67431;48.806;9.160;2023-02-10T05:32:20;37.73;;;23.50;;
1300;SDS011;67431;48.806;9.160;2023-02-10T05:34:45;36.97;;;23.30;;
1300;SDS011;67431;48.806;9.160;2023-02-10T05:37:11;43.67;;;25.77;;
1300;SDS011;67431;48.806;9.160;2023-02-10T05:39:37;39.23;;;24.87;;
1300;SDS011;67431;48.806;9.160;2023-02-10T05:42:03;49.43;;;31.20;;
1300;SDS011;67431;48.806;9.160;2023-02-10T05:44:29;46.00;;;25.90;;
1300;SDS011;67431;48.806;9.160;2023-02-10T05:46:57;38.57;;;22.93;;
1300;SDS011;67431;48.806;9.160;2023-02-10T05:49:29;32.33;;;19.90;;
1300;SDS011;67431;48.806;9.160;2023-02-10T05:51:55;43.63;;;24.17;;
1300;SDS011;67431;48.806;9.160;2023-02-10T05:54:22;43.67;;;26.23;;
1300;SDS011;67431;48.806;9.160;2023-02-10T05:56:48;39.47;;;24.20;;
1300;SDS011;67431;48.806;9.160;2023-02-10T05:59:19;36.57;;;21.00;;
1300;SDS011;67431;48.806;9.160;2023-02-10T06:01:44;34.70;;;20.60;;
1300;SDS011;67431;48.806;9.160;2023-02-10T06:04:10;46.30;;;24.17;;
1300;SDS011;67431;48.806;9.160;2023-02-10T06:06:36;43.60;;;23.47;;
1300;SDS011;67431;48.806;9.160;2023-02-10T06:09:03;40.87;;;22.70;;
1300;SDS011;67431;48.806;9.160;2023-02-10T06:11:29;40.10;;;22.93;;
1300;SDS011;67431;48.806;9.160;2023-02-10T06:13:56;41.73;;;23.87;;
1300;SDS011;67431;48.806;9.160;2023-02-10T06:16:22;41.57;;;21.00;;
1300;SDS011;67431;48.806;9.160;2023-02-10T06:18:49;40.93;;;24.30;;
1300;SDS011;67431;48.806;9.160;2023-02-10T06:21:15;45.33;;;24.80;;
1300;SDS011;67431;48.806;9.160;2023-02-10T06:23:42;44.57;;;23.93;;
1300;SDS011;67431;48.806;9.160;2023-02-10T06:26:08;47.47;;;27.00;;
1300;SDS011;67431;48.806;9.160;2023-02-10T06:28:34;41.07;;;22.83;;
1300;SDS011;67431;48.806;9.160;2023-02-10T06:31:04;38.77;;;24.50;;
1300;SDS011;67431;48.806;9.160;2023-02-10T06:33:33;42.20;;;23.80;;
1300;SDS011;67431;48.806;9.160;2023-02-10T06:36:01;41.40;;;22.30;;
1300;SDS011;67431;48.806;9.160;2023-02-10T06:38:31;40.00;;;22.37;;
1300;SDS011;67431;48.806;9.160;2023-02-10T06:40:58;43.63;;;22.50;;
1300;SDS011;67431;48.806;9.160;2023-02-10T06:43:28;38.87;;;24.10;;
1300;SDS011;67431;48.806;9.160;2023-02-10T06:45:55;37.90;;;22.83;;
1300;SDS011;67431;48.806;9.160;2023-02-10T06:48:21;42.43;;;22.40;;
1300;SDS011;67431;48.806;9.160;2023-02-10T06:50:47;44.27;;;22.50;;
1300;SDS011;67431;48.806;9.160;2023-02-10T06:53:12;38.67;;;22.27;;
1300;SDS011;67431;48.806;9.160;2023-02-10T06:55:39;38.73;;;22.70;;
1300;SDS011;67431;48.806;9.160;2023-02-10T06:58:05;38.23;;;22.30;;
1300;SDS011;67431;48.806;9.160;2023-02-10T07:00:34;36.60;;;22.00;;
1300;SDS011;67431;48.806;9.160;2023-02-10T07:03:00;43.37;;;26.97;;
1300;SDS011;67431;48.806;9.160;2023-02-10T07:05:28;34.70;;;21.60;;
1300;SDS011;67431;48.806;9.160;2023-02-10T07:07:56;38.97;;;22.80;;
1300;SDS011;67431;48.806;9.160;2023-02-10T07:10:24;39.57;;;21.30;;
1300;SDS011;67431;48.806;9.160;2023-02-10T07:12:50;35.87;;;22.13;;
1300;SDS011;67431;48.806;9.160;2023-02-10T07:15:20;35.83;;;20.57;;
1300;SDS011;67431;48.806;9.160;2023-02-10T07:18:19;37.47;;;22.07;;
1300;SDS011;67431;48.806;9.160;2023-02-10T07:20:45;40.00;;;21.20;;
1300;SDS011;67431;48.806;9.160;2023-02-10T07:23:11;39.40;;;22.47;;
1300;SDS011;67431;48.806;9.160;2023-02-10T07:25:37;38.70;;;22.40;;
1300;SDS011;67431;48.806;9.160;2023-02-10T07:28:02;38.40;;;22.23;;
1300;SDS011;67431;48.806;9.160;2023-02-10T07:30:28;36.83;;;22.30;;
1300;SDS011;67431;48.806;9.160;2023-02-10T07:32:55;45.63;;;21.30;;
1300;SDS011;67431;48.806;9.160;2023-02-10T07:35:21;36.80;;;21.23;;
1300;SDS011;67431;48.806;9.160;2023-02-10T07:37:47;42.17;;;21.53;;
1300;SDS011;67431;48.806;9.160;2023-02-10T07:40:13;36.40;;;21.90;;
1300;SDS011;67431;48.806;9.160;2023-02-10T07:42:39;34.30;;;20.30;;
1300;SDS011;67431;48.806;9.160;2023-02-10T07:45:24;37.33;;;22.10;;
1300;SDS011;67431;48.806;9.160;2023-02-10T07:47:51;42.43;;;21.53;;
1300;SDS011;67431;48.806;9.160;2023-02-10T07:50:17;35.37;;;21.33;;
1300;SDS011;67431;48.806;9.160;2023-02-10T07:52:43;34.97;;;21.20;;
1300;SDS011;67431;48.806;9.160;2023-02-10T07:55:09;36.90;;;20.50;;
1300;SDS011;67431;48.806;9.160;2023-02-10T07:57:35;37.50;;;20.30;;
1300;SDS011;67431;48.806;9.160;2023-02-10T08:00:04;38.47;;;21.73;;
1300;SDS011;67431;48.806;9.160;2023-02-10T08:02:38;36.80;;;21.20;;
1300;SDS011;67431;48.806;9.160;2023-02-10T08:05:06;37.07;;;20.73;;
1300;SDS011;67431;48.806;9.160;2023-02-10T08:07:32;40.77;;;24.20;;
1300;SDS011;67431;48.806;9.160;2023-02-10T08:09:58;39.40;;;21.30;;
1300;SDS011;67431;48.806;9.160;2023-02-10T08:12:25;38.30;;;24.67;;
1300;SDS011;67431;48.806;9.160;2023-02-10T08:14:51;38.70;;;23.10;;
1300;SDS011;67431;48.806;9.160;2023-02-10T08:17:17;39.40;;;22.47;;
1300;SDS011;67431;48.806;9.160;2023-02-10T08:19:43;43.23;;;24.30;;
1300;SDS011;67431;48.806;9.160;2023-02-10T08:22:09;37.23;;;22.67;;
1300;SDS011;67431;48.806;9.160;2023-02-10T08:24:35;43.57;;;23.73;;
1300;SDS011;67431;48.806;9.160;2023-02-10T08:27:03;39.60;;;26.00;;
1300;SDS011;67431;48.806;9.160;2023-02-10T08:29:29;38.17;;;24.27;;
1300;SDS011;67431;48.806;9.160;2023-02-10T08:31:55;38.33;;;22.87;;
1300;SDS011;67431;48.806;9.160;2023-02-10T08:34:21;35.37;;;23.80;;
1300;SDS011;67431;48.806;9.160;2023-02-10T08:36:47;44.23;;;25.20;;
1300;SDS011;67431;48.806;9.160;2023-02-10T08:39:16;41.77;;;24.73;;
1300;SDS011;67431;48.806;9.160;2023-02-10T08:41:42;50.43;;;26.67;;
1300;SDS011;67431;48.806;9.160;2023-02-10T08:44:09;42.23;;;26.30;;
1300;SDS011;67431;48.806;9.160;2023-02-10T08:46:38;43.27;;;24.60;;
1300;SDS011;67431;48.806;9.160;2023-02-10T08:49:05;47.13;;;24.57;;
1300;SDS011;67431;48.806;9.160;2023-02-10T08:51:30;33.03;;;23.43;;
1300;SDS011;67431;48.806;9.160;2023-02-10T08:53:59;39.30;;;22.93;;
1300;SDS011;67431;48.806;9.160;2023-02-10T08:56:26;41.63;;;23.30;;
1300;SDS011;67431;48.806;9.160;2023-02-10T08:58:54;37.57;;;25.03;;
1300;SDS011;67431;48.806;9.160;2023-02-10T09:01:22;42.30;;;25.70;;
1300;SDS011;67431;48.806;9.160;2023-02-10T09:03:51;40.47;;;24.37;;
1300;SDS011;67431;48.806;9.160;2023-02-10T09:06:20;45.13;;;27.40;;
1300;SDS011;67431;48.806;9.160;2023-02-10T09:08:47;36.87;;;25.17;;
1300;SDS011;67431;48.806;9.160;2023-02-10T09:11:14;41.03;;;27.23;;
1300;SDS011;67431;48.806;9.160;2023-02-10T09:13:41;43.40;;;28.00;;
1300;SDS011;67431;48.806;9.160;2023-02-10T09:16:07;40.67;;;25.33;;
1300;SDS011;67431;48.806;9.160;2023-02-10T09:18:34;43.20;;;26.53;;
1300;SDS011;67431;48.806;9.160;2023-02-10T09:21:00;41.37;;;25.90;;
1300;SDS011;67431;48.806;9.160;2023-02-10T09:23:27;46.57;;;26.53;;
1300;SDS011;67431;48.806;9.160;2023-02-10T09:25:54;45.80;;;28.23;;
1300;SDS011;67431;48.806;9.160;2023-02-10T09:28:21;41.33;;;26.73;;
1300;SDS011;67431;48.806;9.160;2023-02-10T09:30:48;36.60;;;26.07;;
1300;SDS011;67431;48.806;9.160;2023-02-10T09:33:15;43.70;;;27.80;;
1300;SDS011;67431;48.806;9.160;2023-02-10T09:35:41;39.87;;;25.93;;
1300;SDS011;67431;48.806;9.160;2023-02-10T09:38:08;44.00;;;27.40;;
1300;SDS011;67431;48.806;9.160;2023-02-10T09:41:00;43.07;;;27.43;;
1300;SDS011;67431;48.806;9.160;2023-02-10T09:46:35;35.93;;;24.10;;
1300;SDS011;67431;48.806;9.160;2023-02-10T09:52:07;32.87;;;24.83;;
1300;SDS011;67431;48.806;9.160;2023-02-10T09:54:42;37.80;;;24.87;;
1300;SDS011;67431;48.806;9.160;2023-02-10T09:57:19;30.73;;;23.67;;
1300;SDS011;67431;48.806;9.160;2023-02-10T10:00:11;29.83;;;23.07;;
1300;SDS011;67431;48.806;9.160;2023-02-10T10:02:50;31.93;;;25.47;;
1300;SDS011;67431;48.806;9.160;2023-02-10T10:05:22;32.33;;;24.70;;
1300;SDS011;67431;48.806;9.160;2023-02-10T10:07:50;32.57;;;24.90;;
1300;SDS011;67431;48.806;9.160;2023-02-10T10:10:22;37.43;;;25.93;;
1300;SDS011;67431;48.806;9.160;2023-02-10T10:12:57;26.60;;;23.60;;
1300;SDS011;67431;48.806;9.160;2023-02-10T10:15:23;31.40;;;24.53;;
1300;SDS011;67431;48.806;9.160;2023-02-10T10:18:07;33.57;;;25.87;;
1300;SDS011;67431;48.806;9.160;2023-02-10T10:29:39;38.63;;;26.80;;
1300;SDS011;67431;48.806;9.160;2023-02-10T10:32:26;28.53;;;25.50;;
1300;SDS011;67431;48.806;9.160;2023-02-10T10:35:18;31.33;;;25.17;;
1300;SDS011;67431;48.806;9.160;2023-02-10T10:37:48;26.77;;;23.90;;
1300;SDS011;67431;48.806;9.160;2023-02-10T10:40:16;30.23;;;26.20;;
1300;SDS011;67431;48.806;9.160;2023-02-10T10:42:58;30.80;;;27.03;;
1300;SDS011;67431;48.806;9.160;2023-02-10T10:45:34;29.40;;;26.30;;
1300;SDS011;67431;48.806;9.160;2023-02-10T10:48:12;29.93;;;26.70;;
1300;SDS011;67431;48.806;9.160;2023-02-10T10:50:41;32.77;;;26.50;;
1300;SDS011;67431;48.806;9.160;2023-02-10T10:59:01;29.73;;;25.30;;
1300;SDS011;67431;48.806;9.160;2023-02-10T11:01:39;29.43;;;26.23;;
1300;SDS011;67431;48.806;9.160;2023-02-10T11:04:10;31.03;;;27.77;;
1300;SDS011;67431;48.806;9.160;2023-02-10T11:06:42;29.03;;;25.90;;
1300;SDS011;67431;48.806;9.160;2023-02-10T11:11:50;29.97;;;26.17;;
1300;SDS011;67431;48.806;9.160;2023-02-10T11:14:18;28.90;;;24.90;;
1300;SDS011;67431;48.806;9.160;2023-02-10T11:16:52;28.97;;;25.57;;
1300;SDS011;67431;48.806;9.160;2023-02-10T11:19:24;29.97;;;26.93;;
1300;SDS011;67431;48.806;9.160;2023-02-10T11:21:53;29.10;;;26.10;;
1300;SDS011;67431;48.806;9.160;2023-02-10T11:29:45;28.10;;;25.20;;
1300;SDS011;67431;48.806;9.160;2023-02-10T11:34:57;29.23;;;26.20;;
1300;SDS011;67431;48.806;9.160;2023-02-10T11:40:00;28.33;;;25.53;;
1300;SDS011;67431;48.806;9.160;2023-02-10T11:42:33;27.53;;;24.63;;
1300;SDS011;67431;48.806;9.160;2023-02-10T11:45:02;28.83;;;25.80;;
1300;SDS011;67431;48.806;9.160;2023-02-10T11:47:35;28.03;;;25.30;;
1300;SDS011;67431;48.806;9.160;2023-02-10T11:50:02;27.70;;;24.90;;
1300;SDS011;67431;48.806;9.160;2023-02-10T11:52:41;28.43;;;25.50;;
1300;SDS011;67431;48.806;9.160;2023-02-10T11:55:15;27.10;;;24.50;;
1300;SDS011;67431;48.806;9.160;2023-02-10T12:06:16;25.77;;;22.70;;
1300;SDS011;67431;48.806;9.160;2023-02-10T12:25:20;25.93;;;23.03;;
1300;SDS011;67431;48.806;9.160;2023-02-10T12:28:01;24.43;;;21.67;;
1300;SDS011;67431;48.806;9.160;2023-02-10T12:36:07;24.70;;;22.43;;
1300;SDS011;67431;48.806;9.160;2023-02-10T12:44:10;23.73;;;21.37;;
1300;SDS011;67431;48.806;9.160;2023-02-10T12:49:36;28.10;;;22.80;;
1300;SDS011;67431;48.806;9.160;2023-02-10T12:55:16;24.30;;;21.77;;
1300;SDS011;67431;48.806;9.160;2023-02-10T12:57:47;24.70;;;22.20;;
1300;SDS011;67431;48.806;9.160;2023-02-10T13:00:23;23.80;;;21.53;;
1300;SDS011;67431;48.806;9.160;2023-02-10T13:02:52;24.67;;;22.00;;
1300;SDS011;67431;48.806;9.160;2023-02-10T13:05:25;24.23;;;21.73;;
1300;SDS011;67431;48.806;9.160;2023-02-10T13:08:00;24.20;;;21.70;;
1300;SDS011;67431;48.806;9.160;2023-02-10T13:10:46;23.93;;;21.53;;
1300;SDS011;67431;48.806;9.160;2023-02-10T13:15:53;21.03;;;19.00;;
1300;SDS011;67431;48.806;9.160;2023-02-10T13:18:36;21.60;;;19.50;;
1300;SDS011;67431;48.806;9.160;2023-02-10T13:21:11;21.40;;;19.30;;
1300;SDS011;67431;48.806;9.160;2023-02-10T13:23:49;22.47;;;20.27;;
1300;SDS011;67431;48.806;9.160;2023-02-10T13:29:05;20.63;;;18.57;;
1300;SDS011;67431;48.806;9.160;2023-02-10T13:34:48;20.07;;;18.00;;
1300;SDS011;67431;48.806;9.160;2023-02-10T13:37:30;21.40;;;19.27;;
1300;SDS011;67431;48.806;9.160;2023-02-10T13:40:15;19.50;;;17.50;;
1300;SDS011;67431;48.806;9.160;2023-02-10T13:42:50;19.13;;;17.10;;
1300;SDS011;67431;48.806;9.160;2023-02-10T13:45:29;20.63;;;18.53;;
1300;SDS011;67431;48.806;9.160;2023-02-10T13:50:53;20.10;;;18.00;;
1300;SDS011;67431;48.806;9.160;2023-02-10T13:58:51;20.90;;;18.67;;
1300;SDS011;67431;48.806;9.160;2023-02-10T14:01:40;21.60;;;18.80;;
1300;SDS011;67431;48.806;9.160;2023-02-10T14:06:47;20.57;;;18.37;;
1300;SDS011;67431;48.806;9.160;2023-02-10T14:11:54;20.23;;;18.03;;
1300;SDS011;67431;48.806;9.160;2023-02-10T14:14:29;22.17;;;19.90;;
1300;SDS011;67431;48.806;9.160;2023-02-10T14:17:24;22.47;;;20.17;;
1300;SDS011;67431;48.806;9.160;2023-02-10T14:19:56;21.03;;;18.43;;
1300;SDS011;67431;48.806;9.160;2023-02-10T14:22:30;20.47;;;18.47;;
1300;SDS011;67431;48.806;9.160;2023-02-10T14:25:14;21.43;;;17.83;;
1300;SDS011;67431;48.806;9.160;2023-02-10T14:27:50;21.53;;;18.10;;
1300;SDS011;67431;48.806;9.160;2023-02-10T14:30:22;19.03;;;17.03;;
1300;SDS011;67431;48.806;9.160;2023-02-10T14:32:52;18.67;;;16.67;;
1300;SDS011;67431;48.806;9.160;2023-02-10T14:35:27;20.80;;;17.07;;
1300;SDS011;67431;48.806;9.160;2023-02-10T14:38:04;20.07;;;17.97;;
1300;SDS011;67431;48.806;9.160;2023-02-10T14:40:44;19.23;;;17.13;;
1300;SDS011;67431;48.806;9.160;2023-02-10T14:43:11;19.70;;;17.07;;
1300;SDS011;67431;48.806;9.160;2023-02-10T14:45:41;21.20;;;18.03;;
1300;SDS011;67431;48.806;9.160;2023-02-10T14:48:12;19.80;;;17.70;;
1300;SDS011;67431;48.806;9.160;2023-02-10T14:51:02;19.40;;;15.70;;
1300;SDS011;67431;48.806;9.160;2023-02-10T14:53:43;19.67;;;17.50;;
1300;SDS011;67431;48.806;9.160;2023-02-10T14:56:17;20.80;;;16.80;;
1300;SDS011;67431;48.806;9.160;2023-02-10T14:58:58;20.97;;;17.53;;
1300;SDS011;67431;48.806;9.160;2023-02-10T15:01:28;20.47;;;17.20;;
1300;SDS011;67431;48.806;9.160;2023-02-10T15:03:58;19.63;;;16.93;;
1300;SDS011;67431;48.806;9.160;2023-02-10T15:06:25;21.23;;;18.03;;
1300;SDS011;67431;48.806;9.160;2023-02-10T15:09:00;20.47;;;17.17;;
1300;SDS011;67431;48.806;9.160;2023-02-10T15:11:42;20.77;;;17.87;;
1300;SDS011;67431;48.806;9.160;2023-02-10T15:14:46;20.03;;;16.93;;
1300;SDS011;67431;48.806;9.160;2023-02-10T15:33:27;18.67;;;16.57;;
1300;SDS011;67431;48.806;9.160;2023-02-10T15:36:26;23.30;;;18.40;;
1300;SDS011;67431;48.806;9.160;2023-02-10T15:39:22;21.13;;;18.07;;
1300;SDS011;67431;48.806;9.160;2023-02-10T15:44:26;23.27;;;17.07;;
1300;SDS011;67431;48.806;9.160;2023-02-10T15:47:27;21.67;;;17.50;;
1300;SDS011;67431;48.806;9.160;2023-02-10T15:49:48;22.60;;;16.73;;
1300;SDS011;67431;48.806;9.160;2023-02-10T15:55:00;25.03;;;19.50;;
1300;SDS011;67431;48.806;9.160;2023-02-10T15:57:28;25.37;;;18.23;;
1300;SDS011;67431;48.806;9.160;2023-02-10T15:59:53;24.07;;;17.47;;
1300;SDS011;67431;48.806;9.160;2023-02-10T16:02:20;22.63;;;18.07;;
1300;SDS011;67431;48.806;9.160;2023-02-10T16:04:46;26.00;;;19.83;;
1300;SDS011;67431;48.806;9.160;2023-02-10T16:07:21;24.00;;;18.43;;
1300;SDS011;67431;48.806;9.160;2023-02-10T16:09:50;28.73;;;19.30;;
1300;SDS011;67431;48.806;9.160;2023-02-10T16:12:17;34.97;;;22.70;;
1300;SDS011;67431;48.806;9.160;2023-02-10T16:14:44;31.17;;;22.20;;
1300;SDS011;67431;48.806;9.160;2023-02-10T16:17:10;28.00;;;19.57;;
1300;SDS011;67431;48.806;9.160;2023-02-10T16:19:46;20.43;;;16.80;;
1300;SDS011;67431;48.806;9.160;2023-02-10T16:22:12;26.23;;;17.80;;
1300;SDS011;67431;48.806;9.160;2023-02-10T16:24:39;26.90;;;17.47;;
1300;SDS011;67431;48.806;9.160;2023-02-10T16:27:05;27.00;;;17.30;;
1300;SDS011;67431;48.806;9.160;2023-02-10T16:29:34;23.87;;;16.77;;
1300;SDS011;67431;48.806;9.160;2023-02-10T16:32:04;23.20;;;16.77;;
1300;SDS011;67431;48.806;9.160;2023-02-10T16:34:49;27.83;;;16.90;;
1300;SDS011;67431;48.806;9.160;2023-02-10T16:37:20;25.67;;;20.33;;
1300;SDS011;67431;48.806;9.160;2023-02-10T16:39:48;27.17;;;18.57;;
1300;SDS011;67431;48.806;9.160;2023-02-10T16:42:16;23.60;;;18.53;;
1300;SDS011;67431;48.806;9.160;2023-02-10T16:44:46;27.17;;;17.90;;
1300;SDS011;67431;48.806;9.160;2023-02-10T16:47:16;24.70;;;18.27;;
1300;SDS011;67431;48.806;9.160;2023-02-10T16:49:44;26.83;;;17.03;;
1300;SDS011;67431;48.806;9.160;2023-02-10T16:52:10;28.30;;;19.20;;
1300;SDS011;67431;48.806;9.160;2023-02-10T16:54:36;30.30;;;20.30;;
1300;SDS011;67431;48.806;9.160;2023-02-10T16:57:04;23.97;;;16.50;;
1300;SDS011;67431;48.806;9.160;2023-02-10T16:59:31;26.03;;;17.60;;
1300;SDS011;67431;48.806;9.160;2023-02-10T17:01:58;25.40;;;17.67;;
1300;SDS011;67431;48.806;9.160;2023-02-10T17:04:26;26.23;;;17.23;;
1300;SDS011;67431;48.806;9.160;2023-02-10T17:06:53;26.60;;;17.37;;
1300;SDS011;67431;48.806;9.160;2023-02-10T17:09:20;26.77;;;17.87;;
1300;SDS011;67431;48.806;9.160;2023-02-10T17:11:47;26.47;;;17.13;;
1300;SDS011;67431;48.806;9.160;2023-02-10T17:14:14;26.83;;;18.33;;
1300;SDS011;67431;48.806;9.160;2023-02-10T17:16:45;25.40;;;16.33;;
1300;SDS011;67431;48.806;9.160;2023-02-10T17:19:15;26.40;;;18.00;;
1300;SDS011;67431;48.806;9.160;2023-02-10T17:21:44;27.23;;;19.17;;
1300;SDS011;67431;48.806;9.160;2023-02-10T17:24:10;26.93;;;18.00;;
1300;SDS011;67431;48.806;9.160;2023-02-10T17:26:37;26.90;;;18.43;;
1300;SDS011;67431;48.806;9.160;2023-02-10T17:29:12;26.20;;;17.17;;